sensor_id;sensor_type;location;lat;lon;timestamp;P1;durP1;ratioP1;P2;durP2;ratioP2
17197;SDS011;8715;51.010;6.812;2023-02-01T00:01:09;591.60;;;567.20;;
17197;SDS011;8715;51.010;6.812;2023-02-01T00:03:34;594.05;;;568.65;;
17197;SDS011;8715;51.010;6.812;2023-02-01T00:05:59;594.95;;;569.60;;
17197;SDS011;8715;51.010;6.812;2023-02-01T00:08:25;591.88;;;567.35;;
17197;SDS011;8715;51.010;6.812;2023-02-01T00:10:57;590.40;;;566.08;;
17197;SDS011;8715;51.010;6.812;2023-02-01T00:13:27;579.88;;;555.63;;
17197;SDS011;8715;51.010;6.812;2023-02-01T00:15:54;605.13;;;580.45;;
17197;SDS011;8715;51.010;6.812;2023-02-01T00:18:19;583.67;;;559.40;;
17197;SDS011;8715;51.010;6.812;2023-02-01T00:20:45;586.30;;;562.20;;
17197;SDS011;8715;51.010;6.812;2023-02-01T00:23:11;580.83;;;556.60;;
17197;SDS011;8715;51.010;6.812;2023-02-01T00:25:37;593.60;;;567.90;;
17197;SDS011;8715;51.010;6.812;2023-02-01T00:28:02;599.07;;;574.27;;
17197;SDS011;8715;51.010;6.812;2023-02-01T00:30:27;608.23;;;582.43;;
17197;SDS011;8715;51.010;6.812;2023-02-01T00:32:52;593.47;;;568.80;;
17197;SDS011;8715;51.010;6.812;2023-02-01T00:35:18;611.37;;;585.97;;
17197;SDS011;8715;51.010;6.812;2023-02-01T00:37:43;577.20;;;553.17;;
17197;SDS011;8715;51.010;6.812;2023-02-01T00:40:08;608.17;;;583.27;;
17197;SDS011;8715;51.010;6.812;2023-02-01T00:42:34;605.78;;;580.17;;
17197;SDS011;8715;51.010;6.812;2023-02-01T00:45:00;595.35;;;571.47;;
17197;SDS011;8715;51.010;6.812;2023-02-01T00:47:25;602.03;;;576.63;;
17197;SDS011;8715;51.010;6.812;2023-02-01T00:49:51;596.47;;;571.85;;
17197;SDS011;8715;51.010;6.812;2023-02-01T00:52:17;600.33;;;575.97;;
17197;SDS011;8715;51.010;6.812;2023-02-01T00:54:42;599.73;;;575.10;;
17197;SDS011;8715;51.010;6.812;2023-02-01T00:57:07;595.63;;;571.20;;
17197;SDS011;8715;51.010;6.812;2023-02-01T00:59:32;610.37;;;585.03;;
17197;SDS011;8715;51.010;6.812;2023-02-01T01:01:58;579.57;;;555.87;;
17197;SDS011;8715;51.010;6.812;2023-02-01T01:04:23;584.47;;;560.23;;
17197;SDS011;8715;51.010;6.812;2023-02-01T01:06:48;583.53;;;559.80;;
17197;SDS011;8715;51.010;6.812;2023-02-01T01:09:14;606.93;;;581.87;;
17197;SDS011;8715;51.010;6.812;2023-02-01T01:11:39;584.63;;;560.90;;
17197;SDS011;8715;51.010;6.812;2023-02-01T01:14:05;601.20;;;576.72;;
17197;SDS011;8715;51.010;6.812;2023-02-01T01:16:31;590.70;;;566.80;;
17197;SDS011;8715;51.010;6.812;2023-02-01T01:18:57;571.13;;;548.00;;
17197;SDS011;8715;51.010;6.812;2023-02-01T01:21:23;562.47;;;539.72;;
17197;SDS011;8715;51.010;6.812;2023-02-01T01:23:49;572.80;;;549.10;;
17197;SDS011;8715;51.010;6.812;2023-02-01T01:26:16;579.25;;;555.95;;
17197;SDS011;8715;51.010;6.812;2023-02-01T01:28:46;561.95;;;538.35;;
17197;SDS011;8715;51.010;6.812;2023-02-01T01:31:12;563.13;;;539.53;;
17197;SDS011;8715;51.010;6.812;2023-02-01T01:33:39;580.35;;;557.25;;
17197;SDS011;8715;51.010;6.812;2023-02-01T01:36:05;560.15;;;536.60;;
17197;SDS011;8715;51.010;6.812;2023-02-01T01:38:31;596.15;;;571.88;;
17197;SDS011;8715;51.010;6.812;2023-02-01T01:40:57;581.97;;;558.10;;
17197;SDS011;8715;51.010;6.812;2023-02-01T01:43:22;572.00;;;548.45;;
17197;SDS011;8715;51.010;6.812;2023-02-01T01:45:48;543.83;;;521.50;;
17197;SDS011;8715;51.010;6.812;2023-02-01T01:50:52;598.70;;;574.65;;
17197;SDS011;8715;51.010;6.812;2023-02-01T01:53:31;536.08;;;514.08;;
17197;SDS011;8715;51.010;6.812;2023-02-01T01:55:59;559.97;;;536.28;;
17197;SDS011;8715;51.010;6.812;2023-02-01T01:58:26;555.90;;;533.47;;
17197;SDS011;8715;51.010;6.812;2023-02-01T02:00:53;555.35;;;532.15;;
17197;SDS011;8715;51.010;6.812;2023-02-01T02:03:38;555.63;;;532.72;;
17197;SDS011;8715;51.010;6.812;2023-02-01T02:06:09;560.00;;;537.10;;
17197;SDS011;8715;51.010;6.812;2023-02-01T02:08:39;535.05;;;512.45;;
17197;SDS011;8715;51.010;6.812;2023-02-01T02:11:04;539.53;;;517.23;;
17197;SDS011;8715;51.010;6.812;2023-02-01T02:16:05;561.72;;;538.58;;
17197;SDS011;8715;51.010;6.812;2023-02-01T02:32:46;546.83;;;524.40;;
17197;SDS011;8715;51.010;6.812;2023-02-01T02:35:34;565.92;;;542.85;;
17197;SDS011;8715;51.010;6.812;2023-02-01T02:38:15;577.55;;;553.55;;
17197;SDS011;8715;51.010;6.812;2023-02-01T02:41:32;585.15;;;561.13;;
17197;SDS011;8715;51.010;6.812;2023-02-01T02:44:32;556.22;;;532.95;;
17197;SDS011;8715;51.010;6.812;2023-02-01T02:48:04;523.88;;;500.70;;
17197;SDS011;8715;51.010;6.812;2023-02-01T02:53:21;555.65;;;532.90;;
17197;SDS011;8715;51.010;6.812;2023-02-01T02:56:08;540.70;;;517.70;;
17197;SDS011;8715;51.010;6.812;2023-02-01T02:58:52;568.38;;;544.80;;
17197;SDS011;8715;51.010;6.812;2023-02-01T03:01:36;540.15;;;517.63;;
17197;SDS011;8715;51.010;6.812;2023-02-01T03:04:21;560.20;;;537.13;;
17197;SDS011;8715;51.010;6.812;2023-02-01T03:06:48;549.88;;;527.00;;
17197;SDS011;8715;51.010;6.812;2023-02-01T03:09:27;551.25;;;528.10;;
17197;SDS011;8715;51.010;6.812;2023-02-01T03:11:58;561.58;;;538.33;;
17197;SDS011;8715;51.010;6.812;2023-02-01T03:17:14;541.15;;;518.03;;
17197;SDS011;8715;51.010;6.812;2023-02-01T03:22:14;530.40;;;508.10;;
17197;SDS011;8715;51.010;6.812;2023-02-01T03:24:41;542.88;;;520.25;;
17197;SDS011;8715;51.010;6.812;2023-02-01T03:32:49;566.97;;;543.03;;
17197;SDS011;8715;51.010;6.812;2023-02-01T03:35:32;562.22;;;538.90;;
17197;SDS011;8715;51.010;6.812;2023-02-01T03:38:12;560.25;;;536.85;;
17197;SDS011;8715;51.010;6.812;2023-02-01T03:40:55;542.47;;;520.10;;
17197;SDS011;8715;51.010;6.812;2023-02-01T03:43:28;549.45;;;526.53;;
17197;SDS011;8715;51.010;6.812;2023-02-01T03:46:02;548.58;;;526.20;;
17197;SDS011;8715;51.010;6.812;2023-02-01T03:48:29;540.22;;;518.03;;
17197;SDS011;8715;51.010;6.812;2023-02-01T03:50:55;566.08;;;542.67;;
17197;SDS011;8715;51.010;6.812;2023-02-01T03:53:22;545.67;;;523.35;;
17197;SDS011;8715;51.010;6.812;2023-02-01T03:55:49;551.92;;;529.20;;
17197;SDS011;8715;51.010;6.812;2023-02-01T03:58:16;565.85;;;542.45;;
17197;SDS011;8715;51.010;6.812;2023-02-01T04:00:44;564.85;;;541.95;;
17197;SDS011;8715;51.010;6.812;2023-02-01T04:03:10;544.42;;;521.20;;
17197;SDS011;8715;51.010;6.812;2023-02-01T04:05:35;568.47;;;544.97;;
17197;SDS011;8715;51.010;6.812;2023-02-01T04:08:01;562.03;;;538.90;;
17197;SDS011;8715;51.010;6.812;2023-02-01T04:10:26;573.23;;;550.17;;
17197;SDS011;8715;51.010;6.812;2023-02-01T04:12:52;566.83;;;543.65;;
17197;SDS011;8715;51.010;6.812;2023-02-01T04:15:17;563.77;;;540.50;;
17197;SDS011;8715;51.010;6.812;2023-02-01T04:17:42;573.80;;;550.17;;
17197;SDS011;8715;51.010;6.812;2023-02-01T04:20:08;561.87;;;538.60;;
17197;SDS011;8715;51.010;6.812;2023-02-01T04:22:34;556.55;;;533.72;;
17197;SDS011;8715;51.010;6.812;2023-02-01T04:24:59;576.17;;;553.00;;
17197;SDS011;8715;51.010;6.812;2023-02-01T04:27:24;583.03;;;557.20;;
17197;SDS011;8715;51.010;6.812;2023-02-01T04:29:50;565.03;;;540.38;;
17197;SDS011;8715;51.010;6.812;2023-02-01T04:32:15;562.85;;;539.80;;
17197;SDS011;8715;51.010;6.812;2023-02-01T04:34:41;617.88;;;592.58;;
17197;SDS011;8715;51.010;6.812;2023-02-01T04:37:06;557.08;;;533.00;;
17197;SDS011;8715;51.010;6.812;2023-02-01T04:39:32;548.78;;;526.30;;
17197;SDS011;8715;51.010;6.812;2023-02-01T04:41:57;573.13;;;549.50;;
17197;SDS011;8715;51.010;6.812;2023-02-01T04:44:23;560.03;;;536.38;;
17197;SDS011;8715;51.010;6.812;2023-02-01T04:46:48;555.58;;;532.53;;
17197;SDS011;8715;51.010;6.812;2023-02-01T04:49:14;565.55;;;542.05;;
17197;SDS011;8715;51.010;6.812;2023-02-01T04:51:40;533.15;;;510.75;;
17197;SDS011;8715;51.010;6.812;2023-02-01T04:54:05;537.65;;;515.72;;
17197;SDS011;8715;51.010;6.812;2023-02-01T04:56:32;566.03;;;542.88;;
17197;SDS011;8715;51.010;6.812;2023-02-01T04:58:59;550.80;;;527.63;;
17197;SDS011;8715;51.010;6.812;2023-02-01T05:01:24;554.73;;;531.83;;
17197;SDS011;8715;51.010;6.812;2023-02-01T05:03:50;545.73;;;524.07;;
17197;SDS011;8715;51.010;6.812;2023-02-01T05:06:15;559.63;;;536.53;;
17197;SDS011;8715;51.010;6.812;2023-02-01T05:08:42;539.55;;;516.80;;
17197;SDS011;8715;51.010;6.812;2023-02-01T05:11:08;540.53;;;518.55;;
17197;SDS011;8715;51.010;6.812;2023-02-01T05:13:53;516.33;;;494.88;;
17197;SDS011;8715;51.010;6.812;2023-02-01T05:16:18;534.80;;;512.40;;
17197;SDS011;8715;51.010;6.812;2023-02-01T05:18:44;554.77;;;532.30;;
17197;SDS011;8715;51.010;6.812;2023-02-01T05:21:09;541.92;;;519.33;;
17197;SDS011;8715;51.010;6.812;2023-02-01T05:23:34;541.80;;;519.20;;
17197;SDS011;8715;51.010;6.812;2023-02-01T05:26:22;539.90;;;518.03;;
17197;SDS011;8715;51.010;6.812;2023-02-01T05:28:50;521.42;;;500.00;;
17197;SDS011;8715;51.010;6.812;2023-02-01T05:31:16;533.45;;;511.58;;
17197;SDS011;8715;51.010;6.812;2023-02-01T05:33:41;596.40;;;572.15;;
17197;SDS011;8715;51.010;6.812;2023-02-01T05:36:07;530.05;;;508.13;;
17197;SDS011;8715;51.010;6.812;2023-02-01T05:38:32;522.60;;;501.67;;
17197;SDS011;8715;51.010;6.812;2023-02-01T05:40:58;548.67;;;525.83;;
17197;SDS011;8715;51.010;6.812;2023-02-01T05:43:23;529.27;;;507.40;;
17197;SDS011;8715;51.010;6.812;2023-02-01T05:45:48;546.72;;;524.00;;
17197;SDS011;8715;51.010;6.812;2023-02-01T05:48:14;529.23;;;507.10;;
17197;SDS011;8715;51.010;6.812;2023-02-01T05:50:39;520.80;;;498.50;;
17197;SDS011;8715;51.010;6.812;2023-02-01T05:53:10;528.60;;;506.80;;
17197;SDS011;8715;51.010;6.812;2023-02-01T05:55:36;519.85;;;498.55;;
17197;SDS011;8715;51.010;6.812;2023-02-01T05:58:01;529.72;;;507.85;;
17197;SDS011;8715;51.010;6.812;2023-02-01T06:00:27;527.15;;;505.90;;
17197;SDS011;8715;51.010;6.812;2023-02-01T06:02:52;541.70;;;519.58;;
17197;SDS011;8715;51.010;6.812;2023-02-01T06:05:18;519.83;;;497.77;;
17197;SDS011;8715;51.010;6.812;2023-02-01T06:07:43;513.17;;;491.50;;
17197;SDS011;8715;51.010;6.812;2023-02-01T06:10:09;531.30;;;509.97;;
17197;SDS011;8715;51.010;6.812;2023-02-01T06:12:35;532.63;;;511.55;;
17197;SDS011;8715;51.010;6.812;2023-02-01T06:15:00;498.50;;;477.73;;
17197;SDS011;8715;51.010;6.812;2023-02-01T06:17:26;512.83;;;489.63;;
17197;SDS011;8715;51.010;6.812;2023-02-01T06:19:51;514.57;;;493.93;;
17197;SDS011;8715;51.010;6.812;2023-02-01T06:22:16;535.63;;;512.73;;
17197;SDS011;8715;51.010;6.812;2023-02-01T06:24:42;531.97;;;509.97;;
17197;SDS011;8715;51.010;6.812;2023-02-01T06:27:07;519.92;;;497.98;;
17197;SDS011;8715;51.010;6.812;2023-02-01T06:29:34;519.15;;;496.48;;
17197;SDS011;8715;51.010;6.812;2023-02-01T06:31:59;525.92;;;503.65;;
17197;SDS011;8715;51.010;6.812;2023-02-01T06:34:25;518.27;;;496.80;;
17197;SDS011;8715;51.010;6.812;2023-02-01T06:36:50;521.95;;;499.42;;
17197;SDS011;8715;51.010;6.812;2023-02-01T06:39:16;515.20;;;494.10;;
17197;SDS011;8715;51.010;6.812;2023-02-01T06:41:50;530.78;;;508.65;;
17197;SDS011;8715;51.010;6.812;2023-02-01T06:44:15;510.65;;;488.33;;
17197;SDS011;8715;51.010;6.812;2023-02-01T06:46:41;503.65;;;482.13;;
17197;SDS011;8715;51.010;6.812;2023-02-01T06:49:06;525.13;;;503.90;;
17197;SDS011;8715;51.010;6.812;2023-02-01T06:51:33;550.88;;;528.05;;
17197;SDS011;8715;51.010;6.812;2023-02-01T06:53:58;531.78;;;509.85;;
17197;SDS011;8715;51.010;6.812;2023-02-01T06:56:24;541.70;;;519.77;;
17197;SDS011;8715;51.010;6.812;2023-02-01T06:58:49;527.97;;;505.38;;
17197;SDS011;8715;51.010;6.812;2023-02-01T07:01:17;507.52;;;487.25;;
17197;SDS011;8715;51.010;6.812;2023-02-01T07:03:42;518.35;;;496.52;;
17197;SDS011;8715;51.010;6.812;2023-02-01T07:06:12;535.17;;;512.38;;
17197;SDS011;8715;51.010;6.812;2023-02-01T07:08:37;535.67;;;513.60;;
17197;SDS011;8715;51.010;6.812;2023-02-01T07:11:07;525.33;;;503.35;;
17197;SDS011;8715;51.010;6.812;2023-02-01T07:13:34;541.05;;;518.38;;
17197;SDS011;8715;51.010;6.812;2023-02-01T07:16:03;527.03;;;504.92;;
17197;SDS011;8715;51.010;6.812;2023-02-01T07:18:30;523.72;;;501.52;;
17197;SDS011;8715;51.010;6.812;2023-02-01T07:20:55;533.30;;;511.25;;
17197;SDS011;8715;51.010;6.812;2023-02-01T07:23:21;535.53;;;512.85;;
17197;SDS011;8715;51.010;6.812;2023-02-01T07:25:47;536.30;;;514.08;;
17197;SDS011;8715;51.010;6.812;2023-02-01T07:28:12;542.03;;;519.95;;
17197;SDS011;8715;51.010;6.812;2023-02-01T07:30:38;533.40;;;511.05;;
17197;SDS011;8715;51.010;6.812;2023-02-01T07:33:03;546.00;;;522.38;;
17197;SDS011;8715;51.010;6.812;2023-02-01T07:35:29;527.10;;;505.35;;
17197;SDS011;8715;51.010;6.812;2023-02-01T07:37:56;556.70;;;532.58;;
17197;SDS011;8715;51.010;6.812;2023-02-01T07:40:23;543.05;;;520.38;;
17197;SDS011;8715;51.010;6.812;2023-02-01T07:42:53;537.47;;;515.60;;
17197;SDS011;8715;51.010;6.812;2023-02-01T07:45:22;544.80;;;521.72;;
17197;SDS011;8715;51.010;6.812;2023-02-01T07:47:47;540.97;;;518.15;;
17197;SDS011;8715;51.010;6.812;2023-02-01T07:50:13;542.45;;;519.90;;
17197;SDS011;8715;51.010;6.812;2023-02-01T07:52:39;557.88;;;534.83;;
17197;SDS011;8715;51.010;6.812;2023-02-01T07:55:05;556.70;;;533.45;;
17197;SDS011;8715;51.010;6.812;2023-02-01T07:57:33;555.60;;;531.60;;
17197;SDS011;8715;51.010;6.812;2023-02-01T07:59:58;563.47;;;539.77;;
17197;SDS011;8715;51.010;6.812;2023-02-01T08:02:43;530.42;;;508.52;;
17197;SDS011;8715;51.010;6.812;2023-02-01T08:05:08;518.20;;;495.70;;
17197;SDS011;8715;51.010;6.812;2023-02-01T08:07:33;538.27;;;515.17;;
17197;SDS011;8715;51.010;6.812;2023-02-01T08:09:59;535.80;;;513.30;;
17197;SDS011;8715;51.010;6.812;2023-02-01T08:12:25;539.40;;;516.65;;
17197;SDS011;8715;51.010;6.812;2023-02-01T08:14:50;537.25;;;514.95;;
17197;SDS011;8715;51.010;6.812;2023-02-01T08:17:15;546.40;;;522.43;;
17197;SDS011;8715;51.010;6.812;2023-02-01T08:19:41;528.33;;;506.17;;
17197;SDS011;8715;51.010;6.812;2023-02-01T08:22:06;542.63;;;519.80;;
17197;SDS011;8715;51.010;6.812;2023-02-01T08:24:32;542.00;;;519.78;;
17197;SDS011;8715;51.010;6.812;2023-02-01T08:26:58;549.78;;;527.42;;
17197;SDS011;8715;51.010;6.812;2023-02-01T08:29:26;542.67;;;519.03;;
17197;SDS011;8715;51.010;6.812;2023-02-01T08:31:51;560.17;;;535.87;;
17197;SDS011;8715;51.010;6.812;2023-02-01T08:34:16;532.42;;;510.08;;
17197;SDS011;8715;51.010;6.812;2023-02-01T08:36:42;541.83;;;518.25;;
17197;SDS011;8715;51.010;6.812;2023-02-01T08:39:08;540.13;;;516.73;;
17197;SDS011;8715;51.010;6.812;2023-02-01T08:41:35;542.50;;;520.45;;
17197;SDS011;8715;51.010;6.812;2023-02-01T08:44:00;551.60;;;528.95;;
17197;SDS011;8715;51.010;6.812;2023-02-01T08:46:26;572.45;;;548.42;;
17197;SDS011;8715;51.010;6.812;2023-02-01T08:48:51;560.03;;;536.50;;
17197;SDS011;8715;51.010;6.812;2023-02-01T08:51:18;571.42;;;547.67;;
17197;SDS011;8715;51.010;6.812;2023-02-01T08:53:44;571.70;;;547.80;;
17197;SDS011;8715;51.010;6.812;2023-02-01T08:56:10;551.63;;;528.33;;
17197;SDS011;8715;51.010;6.812;2023-02-01T08:58:37;558.15;;;533.50;;
17197;SDS011;8715;51.010;6.812;2023-02-01T09:01:03;554.53;;;531.80;;
17197;SDS011;8715;51.010;6.812;2023-02-01T09:03:29;553.08;;;530.63;;
17197;SDS011;8715;51.010;6.812;2023-02-01T09:06:04;549.07;;;526.10;;
17197;SDS011;8715;51.010;6.812;2023-02-01T09:08:31;538.97;;;516.42;;
17197;SDS011;8715;51.010;6.812;2023-02-01T09:11:01;551.25;;;528.33;;
17197;SDS011;8715;51.010;6.812;2023-02-01T09:13:28;551.03;;;527.75;;
17197;SDS011;8715;51.010;6.812;2023-02-01T09:15:53;557.47;;;534.03;;
17197;SDS011;8715;51.010;6.812;2023-02-01T09:18:18;573.67;;;550.28;;
17197;SDS011;8715;51.010;6.812;2023-02-01T09:20:44;571.13;;;547.53;;
17197;SDS011;8715;51.010;6.812;2023-02-01T09:23:10;570.33;;;545.75;;
17197;SDS011;8715;51.010;6.812;2023-02-01T09:25:36;574.63;;;550.60;;
17197;SDS011;8715;51.010;6.812;2023-02-01T09:28:02;577.50;;;553.42;;
17197;SDS011;8715;51.010;6.812;2023-02-01T09:30:30;584.65;;;560.58;;
17197;SDS011;8715;51.010;6.812;2023-02-01T09:32:56;588.00;;;563.80;;
17197;SDS011;8715;51.010;6.812;2023-02-01T09:35:21;582.53;;;558.80;;
17197;SDS011;8715;51.010;6.812;2023-02-01T09:37:46;563.40;;;539.60;;
17197;SDS011;8715;51.010;6.812;2023-02-01T09:40:15;575.13;;;551.63;;
17197;SDS011;8715;51.010;6.812;2023-02-01T09:45:27;569.13;;;545.13;;
17197;SDS011;8715;51.010;6.812;2023-02-01T09:48:00;585.88;;;561.70;;
17197;SDS011;8715;51.010;6.812;2023-02-01T09:50:37;574.42;;;550.38;;
17197;SDS011;8715;51.010;6.812;2023-02-01T09:56:05;584.15;;;559.70;;
17197;SDS011;8715;51.010;6.812;2023-02-01T09:58:35;568.63;;;545.10;;
17197;SDS011;8715;51.010;6.812;2023-02-01T10:01:03;593.88;;;569.67;;
17197;SDS011;8715;51.010;6.812;2023-02-01T10:03:32;570.13;;;546.85;;
17197;SDS011;8715;51.010;6.812;2023-02-01T10:09:02;601.20;;;576.67;;
17197;SDS011;8715;51.010;6.812;2023-02-01T10:17:13;591.25;;;566.13;;
17197;SDS011;8715;51.010;6.812;2023-02-01T10:22:46;590.92;;;565.30;;
17197;SDS011;8715;51.010;6.812;2023-02-01T10:28:03;586.85;;;562.47;;
17197;SDS011;8715;51.010;6.812;2023-02-01T10:30:35;609.35;;;584.00;;
17197;SDS011;8715;51.010;6.812;2023-02-01T10:33:12;625.25;;;599.38;;
17197;SDS011;8715;51.010;6.812;2023-02-01T10:35:41;603.70;;;578.58;;
17197;SDS011;8715;51.010;6.812;2023-02-01T10:41:07;598.72;;;573.83;;
17197;SDS011;8715;51.010;6.812;2023-02-01T10:43:43;599.47;;;574.65;;
17197;SDS011;8715;51.010;6.812;2023-02-01T10:46:10;608.95;;;582.80;;
17197;SDS011;8715;51.010;6.812;2023-02-01T10:48:35;614.95;;;589.35;;
17197;SDS011;8715;51.010;6.812;2023-02-01T10:51:02;631.80;;;605.25;;
17197;SDS011;8715;51.010;6.812;2023-02-01T10:53:42;636.83;;;609.90;;
17197;SDS011;8715;51.010;6.812;2023-02-01T10:56:11;615.17;;;589.53;;
17197;SDS011;8715;51.010;6.812;2023-02-01T10:58:44;628.65;;;602.40;;
17197;SDS011;8715;51.010;6.812;2023-02-01T11:01:22;628.90;;;603.30;;
17197;SDS011;8715;51.010;6.812;2023-02-01T11:03:57;617.88;;;591.78;;
17197;SDS011;8715;51.010;6.812;2023-02-01T11:11:49;627.45;;;601.63;;
17197;SDS011;8715;51.010;6.812;2023-02-01T11:16:50;618.83;;;593.25;;
17197;SDS011;8715;51.010;6.812;2023-02-01T11:19:18;631.78;;;605.72;;
17197;SDS011;8715;51.010;6.812;2023-02-01T11:21:43;665.75;;;636.80;;
17197;SDS011;8715;51.010;6.812;2023-02-01T11:24:25;706.33;;;675.97;;
17197;SDS011;8715;51.010;6.812;2023-02-01T11:26:56;714.33;;;682.28;;
17197;SDS011;8715;51.010;6.812;2023-02-01T11:29:23;700.30;;;669.53;;
17197;SDS011;8715;51.010;6.812;2023-02-01T11:31:54;713.45;;;682.05;;
17197;SDS011;8715;51.010;6.812;2023-02-01T11:34:22;718.53;;;687.17;;
17197;SDS011;8715;51.010;6.812;2023-02-01T11:36:50;712.55;;;681.60;;
17197;SDS011;8715;51.010;6.812;2023-02-01T11:39:38;699.08;;;669.05;;
17197;SDS011;8715;51.010;6.812;2023-02-01T11:42:04;708.58;;;677.50;;
17197;SDS011;8715;51.010;6.812;2023-02-01T11:44:31;719.40;;;688.35;;
17197;SDS011;8715;51.010;6.812;2023-02-01T11:47:16;717.08;;;685.35;;
17197;SDS011;8715;51.010;6.812;2023-02-01T11:49:50;708.17;;;676.38;;
17197;SDS011;8715;51.010;6.812;2023-02-01T12:02:53;719.90;;;688.05;;
17197;SDS011;8715;51.010;6.812;2023-02-01T12:17:01;706.15;;;675.42;;
17197;SDS011;8715;51.010;6.812;2023-02-01T12:25:16;701.13;;;670.90;;
17197;SDS011;8715;51.010;6.812;2023-02-01T12:30:46;703.05;;;672.85;;
17197;SDS011;8715;51.010;6.812;2023-02-01T12:33:38;709.92;;;678.38;;
17197;SDS011;8715;51.010;6.812;2023-02-01T12:38:53;706.33;;;676.03;;
17197;SDS011;8715;51.010;6.812;2023-02-01T12:44:11;703.83;;;673.65;;
17197;SDS011;8715;51.010;6.812;2023-02-01T12:57:30;695.25;;;663.47;;
17197;SDS011;8715;51.010;6.812;2023-02-01T13:02:39;690.97;;;661.13;;
17197;SDS011;8715;51.010;6.812;2023-02-01T13:05:18;701.58;;;671.58;;
17197;SDS011;8715;51.010;6.812;2023-02-01T13:08:01;702.58;;;672.42;;
17197;SDS011;8715;51.010;6.812;2023-02-01T13:10:33;702.95;;;672.85;;
17197;SDS011;8715;51.010;6.812;2023-02-01T13:15:31;704.03;;;673.38;;
17197;SDS011;8715;51.010;6.812;2023-02-01T13:18:31;700.35;;;670.30;;
17197;SDS011;8715;51.010;6.812;2023-02-01T13:21:04;692.15;;;662.97;;
17197;SDS011;8715;51.010;6.812;2023-02-01T13:23:36;717.35;;;686.60;;
17197;SDS011;8715;51.010;6.812;2023-02-01T13:26:03;724.72;;;692.20;;
17197;SDS011;8715;51.010;6.812;2023-02-01T13:42:23;712.38;;;680.13;;
17197;SDS011;8715;51.010;6.812;2023-02-01T13:44:51;702.85;;;671.38;;
17197;SDS011;8715;51.010;6.812;2023-02-01T13:47:30;714.33;;;683.00;;
17197;SDS011;8715;51.010;6.812;2023-02-01T13:52:57;708.15;;;677.55;;
17197;SDS011;8715;51.010;6.812;2023-02-01T13:57:59;704.47;;;674.13;;
17197;SDS011;8715;51.010;6.812;2023-02-01T14:00:33;715.97;;;684.33;;
17197;SDS011;8715;51.010;6.812;2023-02-01T14:13:25;725.80;;;693.90;;
17197;SDS011;8715;51.010;6.812;2023-02-01T14:26:24;738.22;;;705.13;;
17197;SDS011;8715;51.010;6.812;2023-02-01T14:28:53;730.10;;;697.83;;
17197;SDS011;8715;51.010;6.812;2023-02-01T14:31:31;726.70;;;694.45;;
17197;SDS011;8715;51.010;6.812;2023-02-01T14:33:59;727.60;;;694.85;;
17197;SDS011;8715;51.010;6.812;2023-02-01T14:36:32;715.10;;;683.70;;
17197;SDS011;8715;51.010;6.812;2023-02-01T14:39:17;709.35;;;678.60;;
17197;SDS011;8715;51.010;6.812;2023-02-01T14:41:44;714.47;;;683.53;;
17197;SDS011;8715;51.010;6.812;2023-02-01T14:47:02;718.20;;;686.78;;
17197;SDS011;8715;51.010;6.812;2023-02-01T14:49:42;732.72;;;700.40;;
17197;SDS011;8715;51.010;6.812;2023-02-01T14:52:17;723.75;;;692.13;;
17197;SDS011;8715;51.010;6.812;2023-02-01T14:54:46;728.60;;;696.45;;
17197;SDS011;8715;51.010;6.812;2023-02-01T14:57:16;730.47;;;698.05;;
17197;SDS011;8715;51.010;6.812;2023-02-01T14:59:44;730.20;;;697.97;;
17197;SDS011;8715;51.010;6.812;2023-02-01T15:02:18;722.20;;;690.88;;
17197;SDS011;8715;51.010;6.812;2023-02-01T15:04:47;738.35;;;705.78;;
17197;SDS011;8715;51.010;6.812;2023-02-01T15:07:19;720.40;;;687.85;;
17197;SDS011;8715;51.010;6.812;2023-02-01T15:09:45;722.10;;;689.88;;
17197;SDS011;8715;51.010;6.812;2023-02-01T15:14:41;718.27;;;686.03;;
17197;SDS011;8715;51.010;6.812;2023-02-01T15:17:18;727.55;;;695.40;;
17197;SDS011;8715;51.010;6.812;2023-02-01T15:19:52;721.58;;;690.03;;
17197;SDS011;8715;51.010;6.812;2023-02-01T15:22:18;714.45;;;682.83;;
17197;SDS011;8715;51.010;6.812;2023-02-01T15:24:50;723.60;;;691.45;;
17197;SDS011;8715;51.010;6.812;2023-02-01T15:27:17;741.17;;;707.45;;
17197;SDS011;8715;51.010;6.812;2023-02-01T15:29:42;719.03;;;687.83;;
17197;SDS011;8715;51.010;6.812;2023-02-01T15:32:15;723.97;;;692.03;;
17197;SDS011;8715;51.010;6.812;2023-02-01T15:34:54;715.95;;;685.30;;
17197;SDS011;8715;51.010;6.812;2023-02-01T15:37:20;716.20;;;684.03;;
17197;SDS011;8715;51.010;6.812;2023-02-01T15:40:03;722.05;;;689.65;;
17197;SDS011;8715;51.010;6.812;2023-02-01T15:42:29;718.25;;;687.08;;
17197;SDS011;8715;51.010;6.812;2023-02-01T15:44:55;723.83;;;692.03;;
17197;SDS011;8715;51.010;6.812;2023-02-01T15:47:27;716.63;;;683.90;;
17197;SDS011;8715;51.010;6.812;2023-02-01T15:49:55;722.47;;;690.65;;
17197;SDS011;8715;51.010;6.812;2023-02-01T15:54:47;716.10;;;684.25;;
17197;SDS011;8715;51.010;6.812;2023-02-01T15:57:20;718.60;;;686.92;;
17197;SDS011;8715;51.010;6.812;2023-02-01T15:59:55;720.75;;;688.42;;
17197;SDS011;8715;51.010;6.812;2023-02-01T16:02:35;721.03;;;689.63;;
17197;SDS011;8715;51.010;6.812;2023-02-01T16:05:04;723.05;;;690.35;;
17197;SDS011;8715;51.010;6.812;2023-02-01T16:07:31;719.53;;;686.75;;
17197;SDS011;8715;51.010;6.812;2023-02-01T16:09:59;718.33;;;686.75;;
17197;SDS011;8715;51.010;6.812;2023-02-01T16:15:03;719.95;;;688.65;;
17197;SDS011;8715;51.010;6.812;2023-02-01T16:17:29;732.17;;;698.65;;
17197;SDS011;8715;51.010;6.812;2023-02-01T16:19:55;709.97;;;679.40;;
17197;SDS011;8715;51.010;6.812;2023-02-01T16:22:22;707.47;;;676.88;;
17197;SDS011;8715;51.010;6.812;2023-02-01T16:24:47;737.55;;;704.42;;
17197;SDS011;8715;51.010;6.812;2023-02-01T16:27:12;712.07;;;680.67;;
17197;SDS011;8715;51.010;6.812;2023-02-01T16:29:38;721.37;;;689.57;;
17197;SDS011;8715;51.010;6.812;2023-02-01T16:32:03;720.40;;;689.03;;
17197;SDS011;8715;51.010;6.812;2023-02-01T16:34:29;720.33;;;688.45;;
17197;SDS011;8715;51.010;6.812;2023-02-01T16:36:54;712.88;;;681.55;;
17197;SDS011;8715;51.010;6.812;2023-02-01T16:39:22;722.55;;;691.17;;
17197;SDS011;8715;51.010;6.812;2023-02-01T16:41:48;717.58;;;686.05;;
17197;SDS011;8715;51.010;6.812;2023-02-01T16:44:13;707.45;;;677.03;;
17197;SDS011;8715;51.010;6.812;2023-02-01T16:46:39;722.20;;;690.27;;
17197;SDS011;8715;51.010;6.812;2023-02-01T16:49:08;725.67;;;694.10;;
17197;SDS011;8715;51.010;6.812;2023-02-01T16:51:42;719.65;;;688.85;;
17197;SDS011;8715;51.010;6.812;2023-02-01T16:54:07;712.55;;;681.35;;
17197;SDS011;8715;51.010;6.812;2023-02-01T16:56:33;718.00;;;686.60;;
17197;SDS011;8715;51.010;6.812;2023-02-01T16:59:00;700.45;;;670.45;;
17197;SDS011;8715;51.010;6.812;2023-02-01T17:01:26;719.35;;;687.75;;
17197;SDS011;8715;51.010;6.812;2023-02-01T17:03:51;715.78;;;684.00;;
17197;SDS011;8715;51.010;6.812;2023-02-01T17:06:18;725.30;;;692.72;;